Gallina — 9VGC4 — position and weather

sailwx.info

Track history (hours):
 
Tides and Currents Weather Stations Pressure Air Temp Water Temp Dewpoint Dewpoint Depression Visibility Wind Speed Wind Dir Waves Ship Positions

Gallina

Last reported at 2016-Apr-19 23:27 UTC. Time now 2016-Sep-27 20:39 UTC.
Position N 27°33' W 015°19'.
Warning: this ship's position is months out of date.

Type: Ship (hazmat cat A). MMSI: 564646000.

Date/timePositionNaut miles runAvg speedWind from/ knotsBaromVisibWave heightAir tempDewpointWater temp
2016-Apr-19 23:27N 27°33' W 015°19'1415.8
2016-Apr-19 22:33N 27°45' W 015°10'1514.9
2016-Apr-19 21:33N 27°59' W 015°05'1111.2
2016-Apr-19 20:34N 28°08' W 015°12'10 9.6
2016-Apr-19 19:34N 28°08' W 015°23'0 0.1
2016-Apr-19 18:22N 28°08' W 015°23'0 0.0
2016-Apr-19 17:25N 28°08' W 015°23'0 0.0
2016-Apr-19 16:25N 28°08' W 015°23'0 0.0
2016-Apr-19 15:25N 28°08' W 015°23'0 0.0
2016-Apr-19 14:25N 28°08' W 015°23'0 0.0
2016-Apr-19 13:28N 28°08' W 015°23'0 0.0
2016-Apr-19 12:28N 28°08' W 015°23'0 0.0
2016-Apr-19 11:28N 28°08' W 015°23'1 1.3
2016-Apr-19 10:34N 28°08' W 015°22'5 4.8
2016-Apr-19 09:33N 28°08' W 015°17'6 5.7
2016-Apr-19 08:33N 28°08' W 015°10'1010.3
2016-Apr-19 07:33N 28°11' W 014°59'1312.5
2016-Apr-19 06:33N 28°23' W 014°55'1413.6
2016-Apr-19 05:33N 28°37' W 014°53'1313.4
2016-Apr-19 04:33N 28°50' W 014°52'1313.3
2016-Apr-19 03:33N 29°04' W 014°50'  
2016-Apr-15 05:13N 44°06' W 006°13'913.2
2016-Apr-15 04:34N 44°05' W 006°01'2813.4
2016-Apr-15 02:27N 44°00' W 005°22'1313.8
2016-Apr-15 01:31N 43°58' W 005°04'1414.0
2016-Apr-15 00:31N 43°56' W 004°45'68 2.2
2016-Apr-13 17:09N 43°57' W 003°10'813.2
2016-Apr-13 16:34N 43°55' W 003°00'1514.8
2016-Apr-13 15:33N 43°55' W 002°39'1312.1
2016-Apr-13 14:31N 43°59' W 002°23'11514.4
2016-Apr-13 06:31N 44°01' W 005°02'2218.1
2016-Apr-13 05:17N 44°02' W 005°33'1318.1
2016-Apr-13 04:33N 44°04' W 005°52'  
Track history (hours):
 
Tides and Currents Weather Stations Pressure Air Temp Water Temp Dewpoint Dewpoint Depression Visibility Wind Speed Wind Dir Waves Ship Positions

Gallina

Last reported at 2016-Apr-19 23:27 UTC. Time now 2016-Sep-27 20:39 UTC.
Position N 27°33' W 015°19'.
Warning: this ship's position is months out of date.

Type: Ship (hazmat cat A). MMSI: 564646000.

Date/timePositionNaut miles runAvg speedWind from/ knotsBaromVisibWave heightAir tempDewpointWater temp
2016-Apr-19 23:27N 27°33' W 015°19'1415.8
2016-Apr-19 22:33N 27°45' W 015°10'1514.9
2016-Apr-19 21:33N 27°59' W 015°05'1111.2
2016-Apr-19 20:34N 28°08' W 015°12'10 9.6
2016-Apr-19 19:34N 28°08' W 015°23'0 0.1
2016-Apr-19 18:22N 28°08' W 015°23'0 0.0
2016-Apr-19 17:25N 28°08' W 015°23'0 0.0
2016-Apr-19 16:25N 28°08' W 015°23'0 0.0
2016-Apr-19 15:25N 28°08' W 015°23'0 0.0
2016-Apr-19 14:25N 28°08' W 015°23'0 0.0
2016-Apr-19 13:28N 28°08' W 015°23'0 0.0
2016-Apr-19 12:28N 28°08' W 015°23'0 0.0
2016-Apr-19 11:28N 28°08' W 015°23'1 1.3
2016-Apr-19 10:34N 28°08' W 015°22'5 4.8
2016-Apr-19 09:33N 28°08' W 015°17'6 5.7
2016-Apr-19 08:33N 28°08' W 015°10'1010.3
2016-Apr-19 07:33N 28°11' W 014°59'1312.5
2016-Apr-19 06:33N 28°23' W 014°55'1413.6
2016-Apr-19 05:33N 28°37' W 014°53'1313.4
2016-Apr-19 04:33N 28°50' W 014°52'1313.3
2016-Apr-19 03:33N 29°04' W 014°50'  
2016-Apr-15 05:13N 44°06' W 006°13'913.2
2016-Apr-15 04:34N 44°05' W 006°01'2813.4
2016-Apr-15 02:27N 44°00' W 005°22'1313.8
2016-Apr-15 01:31N 43°58' W 005°04'1414.0
2016-Apr-15 00:31N 43°56' W 004°45'68 2.2
2016-Apr-13 17:09N 43°57' W 003°10'813.2
2016-Apr-13 16:34N 43°55' W 003°00'1514.8
2016-Apr-13 15:33N 43°55' W 002°39'1312.1
2016-Apr-13 14:31N 43°59' W 002°23'11514.4
2016-Apr-13 06:31N 44°01' W 005°02'2218.1
2016-Apr-13 05:17N 44°02' W 005°33'1318.1
2016-Apr-13 04:33N 44°04' W 005°52'  

Dump ship's entire track history